createdAt,value
2023-08-12T00:00:42.356Z,10.93
2023-08-12T00:03:09.438Z,7.85
2023-08-12T00:05:36.779Z,5.10
2023-08-12T00:08:03.371Z,8.00
2023-08-12T00:10:29.860Z,4.75
2023-08-12T00:12:56.189Z,6.90
2023-08-12T00:15:22.695Z,6.97
2023-08-12T00:17:49.236Z,9.85
2023-08-12T00:20:17.464Z,5.25
2023-08-12T00:22:43.875Z,8.90
2023-08-12T00:25:10.606Z,6.65
2023-08-12T00:27:38.535Z,7.22
2023-08-12T00:30:05.600Z,7.38
2023-08-12T00:32:32.033Z,6.30
2023-08-12T00:34:58.424Z,10.85
2023-08-12T00:37:24.790Z,6.95
2023-08-12T00:39:51.332Z,5.88
2023-08-12T00:42:17.668Z,5.72
2023-08-12T00:44:44.036Z,8.60
2023-08-12T00:47:10.789Z,15.60
2023-08-12T00:49:39.040Z,8.30
2023-08-12T00:52:05.524Z,8.05
2023-08-12T00:54:31.993Z,7.25
2023-08-12T00:56:58.459Z,9.35
2023-08-12T00:59:25.311Z,6.60
2023-08-12T01:01:51.750Z,6.45
2023-08-12T01:04:18.679Z,8.90
2023-08-12T01:06:46.226Z,6.40
2023-08-12T01:09:12.714Z,10.00
2023-08-12T01:11:45.260Z,10.38
2023-08-12T01:14:27.068Z,6.78
2023-08-12T01:16:58.034Z,7.22
2023-08-12T01:19:40.965Z,10.32
2023-08-12T01:22:09.278Z,12.00
2023-08-12T01:24:36.677Z,9.65
2023-08-12T01:27:03.354Z,10.10
2023-08-12T01:29:30.127Z,13.63
2023-08-12T01:31:58.858Z,10.07
2023-08-12T01:34:37.033Z,10.55
2023-08-12T01:37:05.218Z,19.35
2023-08-12T01:39:32.170Z,11.27
2023-08-12T01:41:58.969Z,9.85
2023-08-12T01:44:25.503Z,10.85
2023-08-12T01:46:51.968Z,12.70
2023-08-12T01:49:18.741Z,14.80
2023-08-12T01:51:45.159Z,10.07
2023-08-12T01:54:11.553Z,11.52
2023-08-12T01:56:37.984Z,11.43
2023-08-12T01:59:04.466Z,12.20
2023-08-12T02:01:30.858Z,13.65
2023-08-12T02:03:57.327Z,14.02
2023-08-12T02:06:23.768Z,16.02
2023-08-12T02:08:51.772Z,12.68
2023-08-12T02:11:18.656Z,10.60
2023-08-12T02:13:45.070Z,10.68
2023-08-12T02:16:11.581Z,13.50
2023-08-12T02:18:38.001Z,9.65
2023-08-12T02:21:04.473Z,12.52
2023-08-12T02:23:30.853Z,11.73
2023-08-12T02:25:57.293Z,12.90
2023-08-12T02:28:23.724Z,12.88
2023-08-12T02:30:50.051Z,14.07
2023-08-12T02:33:16.549Z,12.45
2023-08-12T02:35:43.872Z,10.63
2023-08-12T02:38:10.264Z,9.13
2023-08-12T02:40:36.588Z,13.50
2023-08-12T02:43:03.287Z,16.92
2023-08-12T02:45:29.792Z,14.60
2023-08-12T02:47:56.326Z,15.15
2023-08-12T02:50:22.786Z,12.93
2023-08-12T02:52:49.149Z,13.75
2023-08-12T02:55:15.550Z,13.93
2023-08-12T02:57:41.960Z,11.90
2023-08-12T03:00:09.113Z,17.15
2023-08-12T03:02:35.571Z,15.07
2023-08-12T03:05:01.971Z,21.15
2023-08-12T03:07:28.428Z,15.48
2023-08-12T03:09:54.809Z,15.25
2023-08-12T03:12:21.227Z,16.75
2023-08-12T03:14:47.644Z,13.32
2023-08-12T03:17:14.223Z,15.98
2023-08-12T03:19:40.815Z,13.75
2023-08-12T03:22:07.164Z,17.42
2023-08-12T03:24:33.622Z,17.10
2023-08-12T03:27:00.141Z,22.08
2023-08-12T03:29:26.633Z,16.02
2023-08-12T03:31:53.044Z,16.42
2023-08-12T03:34:19.459Z,16.08
2023-08-12T03:36:47.484Z,16.45
2023-08-12T03:39:13.857Z,20.45
2023-08-12T03:41:40.232Z,16.73
2023-08-12T03:44:06.900Z,20.83
2023-08-12T03:46:33.426Z,17.92
2023-08-12T03:48:59.849Z,16.42
2023-08-12T03:51:26.279Z,15.82
2023-08-12T03:53:52.627Z,13.52
2023-08-12T03:56:19.221Z,17.17
2023-08-12T03:58:46.090Z,14.32
2023-08-12T04:01:12.500Z,15.07
2023-08-12T04:03:38.903Z,14.30
2023-08-12T04:06:05.362Z,14.02
2023-08-12T04:08:33.491Z,21.70
2023-08-12T04:10:59.932Z,18.52
2023-08-12T04:13:26.399Z,12.52
2023-08-12T04:15:54.378Z,13.07
2023-08-12T04:18:20.945Z,15.35
2023-08-12T04:20:48.525Z,16.60
2023-08-12T04:23:14.970Z,15.45
2023-08-12T04:25:43.674Z,18.25
2023-08-12T04:28:11.021Z,17.00
2023-08-12T04:30:41.034Z,14.73
2023-08-12T04:33:07.446Z,20.15
2023-08-12T04:35:34.367Z,15.50
2023-08-12T04:38:01.725Z,15.60
2023-08-12T04:40:28.293Z,16.80
2023-08-12T04:42:54.644Z,16.60
2023-08-12T04:45:21.099Z,20.63
2023-08-12T04:47:47.526Z,19.33
2023-08-12T04:50:13.980Z,19.15
2023-08-12T04:52:40.442Z,25.50
2023-08-12T04:55:06.955Z,20.60
2023-08-12T04:57:33.430Z,18.38
2023-08-12T04:59:59.881Z,14.10
2023-08-12T05:02:26.570Z,18.00
2023-08-12T05:04:53.491Z,19.88
2023-08-12T05:07:20.179Z,16.23
2023-08-12T05:09:46.633Z,19.33
2023-08-12T05:12:13.426Z,21.80
2023-08-12T05:14:40.770Z,19.55
2023-08-12T05:17:07.194Z,18.92
2023-08-12T05:19:33.764Z,20.15
2023-08-12T05:22:00.122Z,18.80
2023-08-12T05:24:26.541Z,22.08
2023-08-12T05:26:52.991Z,16.77
2023-08-12T05:29:19.372Z,20.15
2023-08-12T05:31:45.843Z,17.92
2023-08-12T05:34:12.442Z,20.77
2023-08-12T05:36:38.797Z,14.77
2023-08-12T05:39:05.333Z,17.65
2023-08-12T05:41:31.659Z,14.63
2023-08-12T05:43:58.019Z,18.60
2023-08-12T05:46:24.488Z,18.85
2023-08-12T05:48:50.865Z,16.58
2023-08-12T05:51:17.767Z,14.75
2023-08-12T05:53:44.134Z,11.75
2023-08-12T05:56:10.594Z,15.82
2023-08-12T05:58:36.934Z,17.95
2023-08-12T06:01:03.478Z,13.63
2023-08-12T06:03:29.927Z,17.00
2023-08-12T06:05:56.437Z,20.67
2023-08-12T06:08:22.899Z,17.45
2023-08-12T06:10:49.310Z,14.48
2023-08-12T06:13:15.718Z,15.10
2023-08-12T06:15:42.151Z,15.48
2023-08-12T06:18:08.587Z,16.70
2023-08-12T06:20:35.090Z,13.07
2023-08-12T06:23:01.729Z,16.00
2023-08-12T06:25:28.220Z,13.88
2023-08-12T06:27:54.564Z,17.45
2023-08-12T06:30:20.997Z,12.68
2023-08-12T06:32:47.619Z,14.52
2023-08-12T06:35:14.026Z,14.05
2023-08-12T06:37:40.367Z,13.30
2023-08-12T06:40:09.006Z,14.98
2023-08-12T06:42:35.420Z,9.07
2023-08-12T06:45:01.874Z,10.02
2023-08-12T06:47:30.543Z,13.95
2023-08-12T06:49:57.044Z,10.68
2023-08-12T06:52:23.735Z,9.35
2023-08-12T06:54:50.244Z,11.55
2023-08-12T06:57:16.604Z,7.75
2023-08-12T06:59:43.020Z,11.20
2023-08-12T07:02:09.532Z,9.68
2023-08-12T07:04:36.184Z,7.05
2023-08-12T07:07:02.545Z,10.00
2023-08-12T07:09:28.909Z,9.77
2023-08-12T07:11:55.293Z,10.88
2023-08-12T07:14:21.717Z,8.18
2023-08-12T07:16:48.086Z,11.10
2023-08-12T07:19:16.826Z,9.30
2023-08-12T07:21:43.973Z,7.40
2023-08-12T07:24:10.400Z,5.28
2023-08-12T07:26:36.769Z,5.03
2023-08-12T07:29:03.783Z,6.07
2023-08-12T07:31:30.330Z,6.15
2023-08-12T07:33:56.863Z,5.88
2023-08-12T07:36:23.640Z,4.32
2023-08-12T07:38:50.087Z,5.45
2023-08-12T07:41:16.553Z,4.88
2023-08-12T07:43:42.948Z,7.93
2023-08-12T07:46:10.446Z,4.50
2023-08-12T07:48:38.488Z,4.32
2023-08-12T07:51:05.085Z,3.85
2023-08-12T07:53:31.642Z,3.90
2023-08-12T07:55:58.012Z,4.97
2023-08-12T07:58:24.408Z,3.05
2023-08-12T08:00:53.338Z,3.38
2023-08-12T08:03:19.659Z,4.07
2023-08-12T08:05:48.090Z,3.33
2023-08-12T08:08:14.806Z,4.18
2023-08-12T08:10:41.207Z,2.97
2023-08-12T08:13:07.558Z,4.53
2023-08-12T08:15:34.150Z,4.15
2023-08-12T08:18:02.292Z,3.97
2023-08-12T08:20:29.223Z,3.17
2023-08-12T08:22:56.333Z,2.80
2023-08-12T08:25:22.912Z,4.43
2023-08-12T08:27:49.337Z,2.70
2023-08-12T08:30:15.765Z,4.18
2023-08-12T08:32:42.468Z,2.88
2023-08-12T08:35:09.048Z,5.00
2023-08-12T08:37:35.458Z,2.72
2023-08-12T08:40:02.002Z,2.10
2023-08-12T08:42:28.969Z,2.10
2023-08-12T08:44:59.061Z,2.20
2023-08-12T08:47:28.423Z,2.30
2023-08-12T08:49:56.377Z,3.05
2023-08-12T08:52:23.896Z,2.10
2023-08-12T08:54:53.273Z,2.20
2023-08-12T08:57:23.348Z,3.40
2023-08-12T09:00:16.484Z,1.67
2023-08-12T09:02:44.666Z,1.20
2023-08-12T09:05:12.196Z,1.45
2023-08-12T09:07:39.260Z,2.15
2023-08-12T09:10:06.409Z,1.20
2023-08-12T09:12:33.814Z,1.90
2023-08-12T09:15:00.343Z,2.35
2023-08-12T09:17:27.129Z,1.60
2023-08-12T09:19:53.570Z,1.35
2023-08-12T09:22:20.080Z,3.55
2023-08-12T09:24:46.440Z,2.20
2023-08-12T09:27:12.899Z,1.45
2023-08-12T09:29:39.269Z,3.08
2023-08-12T09:32:19.484Z,2.35
2023-08-12T09:34:52.709Z,2.92
2023-08-12T09:37:19.884Z,1.92
2023-08-12T09:39:47.246Z,9.52
2023-08-12T09:42:14.213Z,5.07
2023-08-12T09:44:41.628Z,3.53
2023-08-12T09:47:09.487Z,3.88
2023-08-12T09:49:36.485Z,7.07
2023-08-12T09:52:03.911Z,4.90
2023-08-12T09:54:32.984Z,3.53
2023-08-12T09:57:00.226Z,3.70
2023-08-12T09:59:36.674Z,5.25
2023-08-12T10:02:08.353Z,6.35
2023-08-12T10:04:46.171Z,5.10
2023-08-12T10:07:15.715Z,5.45
2023-08-12T10:09:42.980Z,2.85
2023-08-12T10:12:10.356Z,4.68
2023-08-12T10:14:37.182Z,3.88
2023-08-12T10:17:06.086Z,3.30
2023-08-12T10:19:33.725Z,5.93
2023-08-12T10:22:00.684Z,5.47
2023-08-12T10:24:27.640Z,5.38
2023-08-12T10:26:54.571Z,6.43
2023-08-12T10:29:21.614Z,3.05
2023-08-12T10:31:48.781Z,4.55
2023-08-12T10:34:26.103Z,5.90
2023-08-12T10:37:02.696Z,4.85
2023-08-12T10:39:32.546Z,2.65
2023-08-12T10:41:59.383Z,4.72
2023-08-12T10:44:39.965Z,3.70
2023-08-12T10:47:08.999Z,12.77
2023-08-12T10:49:38.810Z,4.70
2023-08-12T10:52:05.283Z,3.58
2023-08-12T10:54:31.932Z,4.18
2023-08-12T10:57:04.803Z,6.80
2023-08-12T10:59:46.821Z,4.68
2023-08-12T11:02:20.608Z,7.10
2023-08-12T11:04:51.318Z,7.57
2023-08-12T11:07:21.782Z,6.18
2023-08-12T11:09:53.365Z,4.43
2023-08-12T11:12:28.280Z,3.78
2023-08-12T11:14:54.960Z,8.85
2023-08-12T11:17:28.523Z,4.53
2023-08-12T11:19:56.091Z,5.07
2023-08-12T11:22:22.542Z,4.15
2023-08-12T11:24:49.516Z,4.35
2023-08-12T11:27:15.966Z,6.28
2023-08-12T11:29:42.292Z,3.40
2023-08-12T11:32:09.315Z,4.97
2023-08-12T11:34:35.744Z,5.90
2023-08-12T11:37:05.574Z,3.78
2023-08-12T11:39:33.022Z,4.47
2023-08-12T11:41:59.666Z,7.78
2023-08-12T11:44:26.018Z,6.88
2023-08-12T11:46:52.528Z,4.68
2023-08-12T11:49:19.156Z,4.65
2023-08-12T11:51:48.114Z,4.15
2023-08-12T11:54:15.122Z,4.75
2023-08-12T11:56:41.984Z,9.23
2023-08-12T11:59:08.388Z,5.85
2023-08-12T12:01:35.334Z,3.90
2023-08-12T12:04:04.835Z,6.50
2023-08-12T12:06:37.195Z,6.65
2023-08-12T12:09:07.511Z,2.97
2023-08-12T12:11:34.006Z,7.20
2023-08-12T12:14:04.348Z,7.80
2023-08-12T12:16:52.151Z,5.38
2023-08-12T12:19:22.809Z,7.18
2023-08-12T12:21:53.161Z,4.50
2023-08-12T12:24:19.999Z,6.45
2023-08-12T12:26:48.138Z,7.50
2023-08-12T12:29:15.360Z,4.07
2023-08-12T12:31:42.347Z,4.43
2023-08-12T12:34:10.550Z,6.28
2023-08-12T12:36:37.786Z,4.28
2023-08-12T12:39:04.576Z,9.30
2023-08-12T12:41:31.482Z,7.00
2023-08-12T12:43:57.907Z,5.15
2023-08-12T12:46:24.507Z,3.65
2023-08-12T12:48:51.000Z,4.53
2023-08-12T12:51:17.842Z,5.47
2023-08-12T12:53:44.371Z,4.03
2023-08-12T12:56:10.813Z,10.75
2023-08-12T12:58:37.976Z,8.32
2023-08-12T13:01:05.626Z,5.13
2023-08-12T13:03:32.753Z,4.82
2023-08-12T13:05:59.512Z,8.40
2023-08-12T13:08:26.053Z,7.07
2023-08-12T13:10:52.769Z,5.40
2023-08-12T13:13:19.422Z,4.45
2023-08-12T13:15:46.735Z,5.43
2023-08-12T13:18:15.453Z,6.35
2023-08-12T13:20:41.822Z,9.57
2023-08-12T13:23:08.218Z,7.78
2023-08-12T13:25:34.909Z,3.75
2023-08-12T13:28:01.882Z,8.55
2023-08-12T13:30:28.523Z,4.90
2023-08-12T13:32:55.168Z,8.85
2023-08-12T13:35:21.993Z,9.70
2023-08-12T13:37:48.510Z,6.53
2023-08-12T13:40:16.611Z,3.80
2023-08-12T13:42:43.206Z,6.18
2023-08-12T13:45:10.932Z,4.53
2023-08-12T13:47:37.387Z,7.35
2023-08-12T13:50:03.981Z,7.85
2023-08-12T13:52:30.385Z,8.00
2023-08-12T13:54:56.838Z,7.55
2023-08-12T13:57:23.278Z,5.90
2023-08-12T13:59:49.748Z,6.13
2023-08-12T14:02:16.860Z,7.60
2023-08-12T14:04:43.287Z,6.47
2023-08-12T14:07:09.613Z,4.88
2023-08-12T14:09:36.045Z,5.15
2023-08-12T14:12:02.668Z,4.70
2023-08-12T14:14:30.758Z,6.32
2023-08-12T14:16:57.234Z,7.18
2023-08-12T14:19:23.725Z,9.10
2023-08-12T14:21:50.054Z,4.93
2023-08-12T14:24:16.847Z,4.88
2023-08-12T14:26:43.387Z,4.97
2023-08-12T14:29:10.376Z,6.40
2023-08-12T14:31:36.781Z,3.78
2023-08-12T14:34:04.342Z,7.10
2023-08-12T14:36:30.788Z,3.35
2023-08-12T14:38:57.118Z,6.15
2023-08-12T14:41:23.552Z,5.80
2023-08-12T14:43:49.950Z,7.72
2023-08-12T14:46:16.789Z,7.15
2023-08-12T14:48:43.188Z,5.00
2023-08-12T14:51:09.536Z,6.85
2023-08-12T14:53:36.721Z,5.60
2023-08-12T14:56:03.722Z,8.85
2023-08-12T14:58:30.113Z,8.02
2023-08-12T15:00:57.891Z,7.57
2023-08-12T15:03:24.463Z,10.23
2023-08-12T15:05:59.535Z,8.50
2023-08-12T15:10:52.176Z,6.47
2023-08-12T15:13:18.621Z,6.82
2023-08-12T15:15:48.223Z,5.43
2023-08-12T15:18:14.582Z,8.02
2023-08-12T15:20:41.320Z,7.35
2023-08-12T15:23:07.659Z,5.47
2023-08-12T15:25:34.002Z,7.47
2023-08-12T15:28:00.471Z,4.10
2023-08-12T15:30:26.941Z,11.75
2023-08-12T15:32:53.410Z,10.07
2023-08-12T16:01:18.505Z,10.80
2023-08-12T16:03:45.010Z,10.20
2023-08-12T16:06:11.502Z,6.75
2023-08-12T16:08:37.964Z,10.43
2023-08-12T16:11:04.394Z,6.45
2023-08-12T16:13:31.764Z,7.35
2023-08-12T16:15:58.697Z,7.97
2023-08-12T16:18:25.515Z,10.60
2023-08-12T16:20:52.037Z,7.47
2023-08-12T16:23:18.688Z,4.35
2023-08-12T16:25:45.449Z,10.02
2023-08-12T16:28:11.936Z,9.18
2023-08-12T16:30:38.593Z,5.13
2023-08-12T16:33:05.403Z,8.18
2023-08-12T16:35:31.922Z,6.78
2023-08-12T16:37:58.431Z,6.90
2023-08-12T16:40:24.931Z,11.43
2023-08-12T16:42:51.367Z,6.57
2023-08-12T16:45:18.237Z,3.53
2023-08-12T16:47:44.738Z,5.40
2023-08-12T16:50:11.210Z,8.43
2023-08-12T16:52:37.621Z,8.95
2023-08-12T16:55:05.193Z,7.25
2023-08-12T16:57:31.825Z,3.55
2023-08-12T16:59:58.200Z,5.95
2023-08-12T17:02:25.467Z,5.07
2023-08-12T17:04:51.946Z,5.38
2023-08-12T17:07:18.494Z,3.42
2023-08-12T17:09:47.353Z,6.80
2023-08-12T17:12:14.415Z,6.60
2023-08-12T17:14:41.120Z,5.95
2023-08-12T17:17:07.824Z,9.60
2023-08-12T17:19:34.423Z,4.78
2023-08-12T17:22:01.162Z,2.55
2023-08-12T17:24:27.622Z,5.35
2023-08-12T17:26:53.996Z,8.90
2023-08-12T17:29:20.545Z,5.97
2023-08-12T17:31:46.935Z,4.35
2023-08-12T17:34:13.354Z,4.82
2023-08-12T17:36:39.742Z,4.88
2023-08-12T17:39:06.221Z,7.40
2023-08-12T17:41:32.954Z,7.25
2023-08-12T17:43:59.387Z,6.63
2023-08-12T17:46:25.844Z,4.30
2023-08-12T17:48:52.250Z,3.75
2023-08-12T17:51:18.826Z,4.00
2023-08-12T17:53:46.123Z,7.03
2023-08-12T17:56:13.079Z,11.55
2023-08-12T17:58:39.560Z,4.97
2023-08-12T18:01:06.208Z,6.97
2023-08-12T18:03:33.108Z,4.70
2023-08-12T18:05:59.659Z,8.77
2023-08-12T18:08:26.643Z,7.32
2023-08-12T18:10:53.103Z,4.70
2023-08-12T18:13:19.516Z,6.22
2023-08-12T18:15:45.995Z,8.95
2023-08-12T18:18:12.398Z,9.00
2023-08-12T18:20:38.893Z,4.55
2023-08-12T18:23:05.823Z,5.55
2023-08-12T18:25:32.195Z,5.95
2023-08-12T18:27:58.621Z,4.93
2023-08-12T18:30:25.729Z,6.90
2023-08-12T18:32:52.767Z,11.82
2023-08-12T18:35:19.159Z,11.43
2023-08-12T18:37:45.481Z,7.57
2023-08-12T18:40:11.984Z,8.38
2023-08-12T18:42:38.616Z,8.18
2023-08-12T18:45:05.481Z,5.65
2023-08-12T18:47:34.050Z,11.13
2023-08-12T18:50:01.305Z,7.35
2023-08-12T18:52:27.723Z,8.50
2023-08-12T18:54:54.170Z,5.75
2023-08-12T18:57:20.504Z,8.68
2023-08-12T18:59:47.051Z,7.50
2023-08-12T19:02:13.713Z,8.80
2023-08-12T19:04:40.188Z,9.27
2023-08-12T19:07:06.639Z,12.65
2023-08-12T19:09:33.127Z,8.27
2023-08-12T19:11:59.476Z,6.65
2023-08-12T19:14:25.971Z,5.45
2023-08-12T19:16:52.389Z,14.20
2023-08-12T19:19:18.855Z,11.15
2023-08-12T19:21:45.259Z,7.60
2023-08-12T19:24:11.705Z,8.70
2023-08-12T19:26:38.342Z,9.52
2023-08-12T19:29:04.755Z,7.38
2023-08-12T19:31:31.147Z,12.60
2023-08-12T19:33:59.112Z,9.35
2023-08-12T19:36:25.626Z,10.77
2023-08-12T19:38:52.156Z,9.35
2023-08-12T19:41:18.644Z,7.93
2023-08-12T19:43:45.236Z,6.32
2023-08-12T19:46:12.084Z,8.82
2023-08-12T19:48:38.665Z,7.38
2023-08-12T19:51:05.105Z,17.10
2023-08-12T19:53:31.472Z,9.75
2023-08-12T19:55:57.879Z,7.07
2023-08-12T19:58:24.344Z,10.15
2023-08-12T20:00:50.852Z,10.13
2023-08-12T20:03:17.381Z,11.35
2023-08-12T20:05:43.900Z,11.50
2023-08-12T20:08:10.336Z,8.68
2023-08-12T20:10:36.799Z,9.43
2023-08-12T20:13:03.383Z,6.90
2023-08-12T20:15:30.680Z,5.32
2023-08-12T20:17:57.095Z,11.90
2023-08-12T20:20:23.506Z,6.20
2023-08-12T20:23:05.707Z,7.22
2023-08-12T20:25:33.172Z,11.98
2023-08-12T20:28:00.040Z,10.35
2023-08-12T20:30:27.157Z,8.05
2023-08-12T20:32:55.163Z,13.70
2023-08-12T20:35:22.189Z,7.70
2023-08-12T20:37:48.763Z,16.25
2023-08-12T20:40:15.452Z,11.52
2023-08-12T20:42:41.901Z,7.20
2023-08-12T20:45:08.481Z,8.85
2023-08-12T20:47:35.002Z,8.75
2023-08-12T20:50:02.403Z,17.33
2023-08-12T20:52:29.009Z,10.43
2023-08-12T20:54:55.475Z,14.80
2023-08-12T20:57:21.877Z,9.80
2023-08-12T20:59:48.546Z,8.90
2023-08-12T21:02:15.396Z,8.65
2023-08-12T21:04:42.401Z,9.82
2023-08-12T21:07:08.815Z,14.68
2023-08-12T21:09:35.472Z,12.75
2023-08-12T21:12:03.125Z,11.05
2023-08-12T21:14:29.499Z,13.18
2023-08-12T21:16:55.918Z,12.38
2023-08-12T21:19:22.291Z,12.18
2023-08-12T21:21:48.724Z,14.05
2023-08-12T21:24:15.144Z,9.13
2023-08-12T21:26:41.674Z,12.82
2023-08-12T21:29:08.090Z,11.55
2023-08-12T21:31:34.549Z,12.82
2023-08-12T21:34:00.984Z,11.63
2023-08-12T21:36:27.545Z,11.73
2023-08-12T21:38:53.896Z,16.00
2023-08-12T21:41:20.255Z,8.98
2023-08-12T21:43:47.119Z,11.07
2023-08-12T21:46:13.641Z,16.30
2023-08-12T21:48:40.049Z,10.45
2023-08-12T21:51:08.979Z,12.10
2023-08-12T21:53:35.779Z,14.93
2023-08-12T21:56:02.173Z,10.45
2023-08-12T21:58:28.606Z,12.93
2023-08-12T22:00:56.437Z,9.43
2023-08-12T22:03:22.923Z,11.32
2023-08-12T22:05:51.623Z,14.45
2023-08-12T22:08:18.457Z,7.82
2023-08-12T22:10:45.497Z,10.63
2023-08-12T22:13:11.928Z,10.60
2023-08-12T22:15:38.382Z,14.45
2023-08-12T22:18:05.012Z,11.07
2023-08-12T22:20:31.542Z,14.13
2023-08-12T22:22:57.952Z,13.18
2023-08-12T22:25:24.490Z,9.23
2023-08-12T22:27:52.288Z,19.25
2023-08-12T22:30:18.690Z,13.63
2023-08-12T22:32:45.822Z,13.13
2023-08-12T22:35:12.277Z,11.48
2023-08-12T22:37:38.688Z,12.98
2023-08-12T22:40:06.311Z,11.88
2023-08-12T22:42:33.068Z,14.25
2023-08-12T22:44:59.685Z,22.60
2023-08-12T22:47:26.113Z,14.55
2023-08-12T22:49:52.522Z,13.98
2023-08-12T22:52:18.975Z,9.88
2023-08-12T22:54:45.335Z,17.30
2023-08-12T22:57:11.767Z,11.55
2023-08-12T22:59:38.165Z,14.00
2023-08-12T23:02:04.676Z,15.57
2023-08-12T23:04:31.019Z,10.70
2023-08-12T23:06:57.554Z,11.60
2023-08-12T23:09:23.939Z,15.75
2023-08-12T23:11:50.331Z,16.55
2023-08-12T23:14:16.659Z,13.00
2023-08-12T23:16:43.265Z,14.98
2023-08-12T23:19:12.059Z,16.17
2023-08-12T23:21:38.803Z,13.68
2023-08-12T23:24:05.352Z,13.20
2023-08-12T23:26:31.767Z,11.88
2023-08-12T23:28:58.161Z,14.05
2023-08-12T23:31:24.604Z,12.68
2023-08-12T23:33:51.006Z,9.52
2023-08-12T23:36:17.433Z,10.57
2023-08-12T23:38:43.935Z,10.80
2023-08-12T23:41:10.287Z,10.43
2023-08-12T23:43:36.714Z,10.50
2023-08-12T23:46:03.376Z,15.98
2023-08-12T23:48:30.314Z,17.48
2023-08-12T23:50:56.708Z,9.52
2023-08-12T23:53:23.340Z,13.70
2023-08-12T23:55:49.674Z,13.55
2023-08-12T23:58:16.485Z,11.25
